sensor_id;sensor_type;location;lat;lon;timestamp;temperature;humidity
16074;DHT22;8141;52.664;5.074;2023-04-30T00:02:24;19.90;48.00
16074;DHT22;8141;52.664;5.074;2023-04-30T00:04:50;19.90;48.00
16074;DHT22;8141;52.664;5.074;2023-04-30T00:07:16;20.00;48.00
16074;DHT22;8141;52.664;5.074;2023-04-30T00:09:41;20.00;48.00
16074;DHT22;8141;52.664;5.074;2023-04-30T00:12:07;20.00;47.90
16074;DHT22;8141;52.664;5.074;2023-04-30T00:14:33;20.00;47.90
16074;DHT22;8141;52.664;5.074;2023-04-30T00:16:59;20.00;47.90
16074;DHT22;8141;52.664;5.074;2023-04-30T00:19:25;20.00;47.90
16074;DHT22;8141;52.664;5.074;2023-04-30T00:21:50;20.10;47.90
16074;DHT22;8141;52.664;5.074;2023-04-30T00:24:16;20.00;47.90
16074;DHT22;8141;52.664;5.074;2023-04-30T00:26:42;20.00;47.90
16074;DHT22;8141;52.664;5.074;2023-04-30T00:29:09;20.10;47.90
16074;DHT22;8141;52.664;5.074;2023-04-30T00:31:35;20.10;48.00
16074;DHT22;8141;52.664;5.074;2023-04-30T00:34:01;20.10;47.90
16074;DHT22;8141;52.664;5.074;2023-04-30T00:36:26;20.10;47.90
16074;DHT22;8141;52.664;5.074;2023-04-30T00:38:52;20.10;47.90
16074;DHT22;8141;52.664;5.074;2023-04-30T00:41:19;20.10;47.90
16074;DHT22;8141;52.664;5.074;2023-04-30T00:43:45;20.10;47.90
16074;DHT22;8141;52.664;5.074;2023-04-30T00:46:11;20.20;48.00
16074;DHT22;8141;52.664;5.074;2023-04-30T00:48:37;20.20;47.90
16074;DHT22;8141;52.664;5.074;2023-04-30T00:51:04;20.20;47.90
16074;DHT22;8141;52.664;5.074;2023-04-30T00:53:30;20.20;47.80
16074;DHT22;8141;52.664;5.074;2023-04-30T00:55:56;20.30;47.80
16074;DHT22;8141;52.664;5.074;2023-04-30T00:58:22;20.30;47.80
16074;DHT22;8141;52.664;5.074;2023-04-30T01:00:48;20.40;47.70
16074;DHT22;8141;52.664;5.074;2023-04-30T01:03:15;20.40;47.80
16074;DHT22;8141;52.664;5.074;2023-04-30T01:05:40;20.40;47.70
16074;DHT22;8141;52.664;5.074;2023-04-30T01:08:07;20.40;47.80
16074;DHT22;8141;52.664;5.074;2023-04-30T01:10:44;20.40;47.70
16074;DHT22;8141;52.664;5.074;2023-04-30T01:13:31;20.50;47.70
16074;DHT22;8141;52.664;5.074;2023-04-30T01:16:16;20.60;47.70
16074;DHT22;8141;52.664;5.074;2023-04-30T01:18:55;20.50;47.60
16074;DHT22;8141;52.664;5.074;2023-04-30T01:21:23;20.60;47.70
16074;DHT22;8141;52.664;5.074;2023-04-30T01:24:08;20.60;47.60
16074;DHT22;8141;52.664;5.074;2023-04-30T01:26:59;20.60;47.60
16074;DHT22;8141;52.664;5.074;2023-04-30T01:29:39;20.60;47.60
16074;DHT22;8141;52.664;5.074;2023-04-30T01:32:07;20.70;47.60
16074;DHT22;8141;52.664;5.074;2023-04-30T01:34:34;20.60;47.50
16074;DHT22;8141;52.664;5.074;2023-04-30T01:37:15;20.60;47.50
16074;DHT22;8141;52.664;5.074;2023-04-30T01:39:56;20.60;47.50
16074;DHT22;8141;52.664;5.074;2023-04-30T01:45:45;20.60;47.60
16074;DHT22;8141;52.664;5.074;2023-04-30T01:48:48;20.60;47.60
16074;DHT22;8141;52.664;5.074;2023-04-30T01:51:43;20.60;47.60
16074;DHT22;8141;52.664;5.074;2023-04-30T01:54:22;20.60;47.60
16074;DHT22;8141;52.664;5.074;2023-04-30T01:59:36;20.60;47.70
16074;DHT22;8141;52.664;5.074;2023-04-30T02:02:04;20.60;48.30
16074;DHT22;8141;52.664;5.074;2023-04-30T02:04:30;20.60;47.70
16074;DHT22;8141;52.664;5.074;2023-04-30T02:06:57;20.60;47.70
16074;DHT22;8141;52.664;5.074;2023-04-30T02:09:23;20.60;47.70
16074;DHT22;8141;52.664;5.074;2023-04-30T02:11:49;20.60;47.70
16074;DHT22;8141;52.664;5.074;2023-04-30T02:14:15;20.60;47.70
16074;DHT22;8141;52.664;5.074;2023-04-30T02:16:41;20.60;47.70
16074;DHT22;8141;52.664;5.074;2023-04-30T02:19:07;20.60;47.70
16074;DHT22;8141;52.664;5.074;2023-04-30T02:21:33;20.60;47.70
16074;DHT22;8141;52.664;5.074;2023-04-30T02:23:58;20.60;47.80
16074;DHT22;8141;52.664;5.074;2023-04-30T02:26:24;20.60;47.80
16074;DHT22;8141;52.664;5.074;2023-04-30T02:28:51;20.60;47.80
16074;DHT22;8141;52.664;5.074;2023-04-30T02:31:17;20.60;47.80
16074;DHT22;8141;52.664;5.074;2023-04-30T02:33:42;20.60;47.90
16074;DHT22;8141;52.664;5.074;2023-04-30T02:36:08;20.60;47.90
16074;DHT22;8141;52.664;5.074;2023-04-30T02:38:34;20.70;47.90
16074;DHT22;8141;52.664;5.074;2023-04-30T02:41:00;20.60;47.90
16074;DHT22;8141;52.664;5.074;2023-04-30T02:43:26;20.60;48.00
16074;DHT22;8141;52.664;5.074;2023-04-30T02:45:52;20.60;48.00
16074;DHT22;8141;52.664;5.074;2023-04-30T02:48:18;20.60;48.00
16074;DHT22;8141;52.664;5.074;2023-04-30T02:50:43;20.60;48.70
16074;DHT22;8141;52.664;5.074;2023-04-30T02:53:09;20.60;48.00
16074;DHT22;8141;52.664;5.074;2023-04-30T02:55:35;20.60;48.00
16074;DHT22;8141;52.664;5.074;2023-04-30T02:58:01;20.60;48.10
16074;DHT22;8141;52.664;5.074;2023-04-30T03:00:27;20.60;48.00
16074;DHT22;8141;52.664;5.074;2023-04-30T03:02:53;20.70;48.20
16074;DHT22;8141;52.664;5.074;2023-04-30T03:05:18;20.70;48.10
16074;DHT22;8141;52.664;5.074;2023-04-30T03:07:44;20.70;48.10
16074;DHT22;8141;52.664;5.074;2023-04-30T03:10:10;20.60;48.00
16074;DHT22;8141;52.664;5.074;2023-04-30T03:12:36;20.70;48.00
16074;DHT22;8141;52.664;5.074;2023-04-30T03:15:02;20.70;47.90
16074;DHT22;8141;52.664;5.074;2023-04-30T03:17:28;20.80;47.90
16074;DHT22;8141;52.664;5.074;2023-04-30T03:19:53;20.80;47.80
16074;DHT22;8141;52.664;5.074;2023-04-30T03:22:19;20.80;47.80
16074;DHT22;8141;52.664;5.074;2023-04-30T03:24:48;20.80;48.40
16074;DHT22;8141;52.664;5.074;2023-04-30T03:27:14;20.80;47.70
16074;DHT22;8141;52.664;5.074;2023-04-30T03:29:41;20.90;47.70
16074;DHT22;8141;52.664;5.074;2023-04-30T03:32:07;20.90;47.70
16074;DHT22;8141;52.664;5.074;2023-04-30T03:34:33;20.90;47.70
16074;DHT22;8141;52.664;5.074;2023-04-30T03:36:59;20.90;47.70
16074;DHT22;8141;52.664;5.074;2023-04-30T03:39:26;20.90;47.70
16074;DHT22;8141;52.664;5.074;2023-04-30T03:41:52;20.90;47.80
16074;DHT22;8141;52.664;5.074;2023-04-30T03:44:17;20.80;47.80
16074;DHT22;8141;52.664;5.074;2023-04-30T03:46:43;20.90;47.90
16074;DHT22;8141;52.664;5.074;2023-04-30T03:49:10;20.80;47.80
16074;DHT22;8141;52.664;5.074;2023-04-30T03:51:36;20.80;47.80
16074;DHT22;8141;52.664;5.074;2023-04-30T03:54:07;20.80;47.90
16074;DHT22;8141;52.664;5.074;2023-04-30T03:56:34;20.80;47.90
16074;DHT22;8141;52.664;5.074;2023-04-30T03:59:00;20.80;47.90
16074;DHT22;8141;52.664;5.074;2023-04-30T04:01:27;20.80;47.90
16074;DHT22;8141;52.664;5.074;2023-04-30T04:03:54;20.80;47.90
16074;DHT22;8141;52.664;5.074;2023-04-30T04:06:20;20.80;47.90
16074;DHT22;8141;52.664;5.074;2023-04-30T04:08:45;20.80;48.00
16074;DHT22;8141;52.664;5.074;2023-04-30T04:11:11;20.80;48.00
16074;DHT22;8141;52.664;5.074;2023-04-30T04:13:37;20.80;48.10
16074;DHT22;8141;52.664;5.074;2023-04-30T04:16:03;20.80;48.00
16074;DHT22;8141;52.664;5.074;2023-04-30T04:18:29;20.80;48.00
16074;DHT22;8141;52.664;5.074;2023-04-30T04:20:55;20.80;48.10
16074;DHT22;8141;52.664;5.074;2023-04-30T04:23:21;20.80;48.10
16074;DHT22;8141;52.664;5.074;2023-04-30T04:25:47;20.80;48.10
16074;DHT22;8141;52.664;5.074;2023-04-30T04:28:16;20.80;48.20
16074;DHT22;8141;52.664;5.074;2023-04-30T04:30:42;20.70;48.20
16074;DHT22;8141;52.664;5.074;2023-04-30T04:33:08;20.70;48.20
16074;DHT22;8141;52.664;5.074;2023-04-30T04:35:35;20.70;48.30
16074;DHT22;8141;52.664;5.074;2023-04-30T04:38:01;20.80;48.40
16074;DHT22;8141;52.664;5.074;2023-04-30T04:40:27;20.80;48.40
16074;DHT22;8141;52.664;5.074;2023-04-30T04:42:52;20.80;48.40
16074;DHT22;8141;52.664;5.074;2023-04-30T04:45:20;20.70;48.30
16074;DHT22;8141;52.664;5.074;2023-04-30T04:47:46;20.80;48.40
16074;DHT22;8141;52.664;5.074;2023-04-30T04:50:12;20.70;48.40
16074;DHT22;8141;52.664;5.074;2023-04-30T04:52:38;20.70;48.40
16074;DHT22;8141;52.664;5.074;2023-04-30T04:55:04;20.80;48.50
16074;DHT22;8141;52.664;5.074;2023-04-30T04:57:30;20.70;48.50
16074;DHT22;8141;52.664;5.074;2023-04-30T04:59:56;20.80;48.50
16074;DHT22;8141;52.664;5.074;2023-04-30T05:02:22;20.70;48.40
16074;DHT22;8141;52.664;5.074;2023-04-30T05:04:48;20.80;48.40
16074;DHT22;8141;52.664;5.074;2023-04-30T05:07:18;20.80;48.40
16074;DHT22;8141;52.664;5.074;2023-04-30T05:09:47;20.80;48.50
16074;DHT22;8141;52.664;5.074;2023-04-30T05:12:13;20.80;48.50
16074;DHT22;8141;52.664;5.074;2023-04-30T05:14:39;20.80;48.50
16074;DHT22;8141;52.664;5.074;2023-04-30T05:17:05;20.70;48.50
16074;DHT22;8141;52.664;5.074;2023-04-30T05:19:31;20.70;48.40
16074;DHT22;8141;52.664;5.074;2023-04-30T05:21:57;20.70;48.40
16074;DHT22;8141;52.664;5.074;2023-04-30T05:24:24;20.70;48.50
16074;DHT22;8141;52.664;5.074;2023-04-30T05:26:50;20.70;48.40
16074;DHT22;8141;52.664;5.074;2023-04-30T05:29:16;20.70;48.40
16074;DHT22;8141;52.664;5.074;2023-04-30T05:31:41;20.80;48.40
16074;DHT22;8141;52.664;5.074;2023-04-30T05:34:07;20.80;48.40
16074;DHT22;8141;52.664;5.074;2023-04-30T05:36:33;20.80;48.40
16074;DHT22;8141;52.664;5.074;2023-04-30T05:38:59;20.70;48.30
16074;DHT22;8141;52.664;5.074;2023-04-30T05:41:24;20.80;48.30
16074;DHT22;8141;52.664;5.074;2023-04-30T05:43:50;20.80;48.30
16074;DHT22;8141;52.664;5.074;2023-04-30T05:46:16;20.80;48.40
16074;DHT22;8141;52.664;5.074;2023-04-30T05:48:42;20.80;48.30
16074;DHT22;8141;52.664;5.074;2023-04-30T05:51:07;20.80;48.30
16074;DHT22;8141;52.664;5.074;2023-04-30T05:53:35;20.70;48.20
16074;DHT22;8141;52.664;5.074;2023-04-30T05:56:00;20.70;48.30
16074;DHT22;8141;52.664;5.074;2023-04-30T05:58:26;20.70;48.30
16074;DHT22;8141;52.664;5.074;2023-04-30T06:00:52;20.70;48.30
16074;DHT22;8141;52.664;5.074;2023-04-30T06:03:18;20.80;48.40
16074;DHT22;8141;52.664;5.074;2023-04-30T06:05:45;20.80;48.30
16074;DHT22;8141;52.664;5.074;2023-04-30T06:08:11;20.80;48.40
16074;DHT22;8141;52.664;5.074;2023-04-30T06:10:37;20.80;48.40
16074;DHT22;8141;52.664;5.074;2023-04-30T06:13:03;20.80;48.30
16074;DHT22;8141;52.664;5.074;2023-04-30T06:15:30;20.80;48.30
16074;DHT22;8141;52.664;5.074;2023-04-30T06:17:56;20.80;48.40
16074;DHT22;8141;52.664;5.074;2023-04-30T06:20:21;20.80;48.40
16074;DHT22;8141;52.664;5.074;2023-04-30T06:22:47;20.80;48.50
16074;DHT22;8141;52.664;5.074;2023-04-30T06:25:13;20.80;48.50
16074;DHT22;8141;52.664;5.074;2023-04-30T06:27:39;20.80;48.30
16074;DHT22;8141;52.664;5.074;2023-04-30T06:30:05;20.80;48.40
16074;DHT22;8141;52.664;5.074;2023-04-30T06:32:31;20.80;48.40
16074;DHT22;8141;52.664;5.074;2023-04-30T06:34:57;20.80;48.40
16074;DHT22;8141;52.664;5.074;2023-04-30T06:37:23;20.80;48.40
16074;DHT22;8141;52.664;5.074;2023-04-30T06:39:49;20.80;48.40
16074;DHT22;8141;52.664;5.074;2023-04-30T06:42:16;20.80;48.40
16074;DHT22;8141;52.664;5.074;2023-04-30T06:44:41;20.80;48.40
16074;DHT22;8141;52.664;5.074;2023-04-30T06:47:07;20.80;48.30
16074;DHT22;8141;52.664;5.074;2023-04-30T06:49:33;20.80;48.50
16074;DHT22;8141;52.664;5.074;2023-04-30T06:51:59;20.80;48.40
16074;DHT22;8141;52.664;5.074;2023-04-30T06:54:25;20.80;48.50
16074;DHT22;8141;52.664;5.074;2023-04-30T06:56:52;20.80;48.40
16074;DHT22;8141;52.664;5.074;2023-04-30T06:59:18;20.80;48.30
16074;DHT22;8141;52.664;5.074;2023-04-30T07:01:43;20.80;48.30
16074;DHT22;8141;52.664;5.074;2023-04-30T07:04:10;20.80;48.30
16074;DHT22;8141;52.664;5.074;2023-04-30T07:06:35;20.80;48.30
16074;DHT22;8141;52.664;5.074;2023-04-30T07:09:02;20.80;48.30
16074;DHT22;8141;52.664;5.074;2023-04-30T07:11:28;20.90;48.40
16074;DHT22;8141;52.664;5.074;2023-04-30T07:13:53;20.80;48.30
16074;DHT22;8141;52.664;5.074;2023-04-30T07:16:19;20.90;48.40
16074;DHT22;8141;52.664;5.074;2023-04-30T07:18:45;20.80;48.30
16074;DHT22;8141;52.664;5.074;2023-04-30T07:21:13;20.90;48.40
16074;DHT22;8141;52.664;5.074;2023-04-30T07:23:40;20.80;48.40
16074;DHT22;8141;52.664;5.074;2023-04-30T07:26:05;20.80;49.00
16074;DHT22;8141;52.664;5.074;2023-04-30T07:28:31;20.90;48.50
16074;DHT22;8141;52.664;5.074;2023-04-30T07:30:57;20.90;48.50
16074;DHT22;8141;52.664;5.074;2023-04-30T07:33:23;20.80;48.40
16074;DHT22;8141;52.664;5.074;2023-04-30T07:35:49;20.90;48.50
16074;DHT22;8141;52.664;5.074;2023-04-30T07:38:15;20.90;48.50
16074;DHT22;8141;52.664;5.074;2023-04-30T07:40:43;20.90;48.50
16074;DHT22;8141;52.664;5.074;2023-04-30T07:43:09;20.90;48.40
16074;DHT22;8141;52.664;5.074;2023-04-30T07:45:36;20.90;48.50
16074;DHT22;8141;52.664;5.074;2023-04-30T07:48:01;20.90;48.40
16074;DHT22;8141;52.664;5.074;2023-04-30T07:50:27;20.90;48.40
16074;DHT22;8141;52.664;5.074;2023-04-30T07:52:58;20.90;48.60
16074;DHT22;8141;52.664;5.074;2023-04-30T07:55:24;20.90;50.70
16074;DHT22;8141;52.664;5.074;2023-04-30T07:57:50;20.90;48.70
16074;DHT22;8141;52.664;5.074;2023-04-30T08:00:16;20.90;49.20
16074;DHT22;8141;52.664;5.074;2023-04-30T08:02:42;21.00;48.70
16074;DHT22;8141;52.664;5.074;2023-04-30T08:05:12;21.00;48.70
16074;DHT22;8141;52.664;5.074;2023-04-30T08:07:38;20.90;48.60
16074;DHT22;8141;52.664;5.074;2023-04-30T08:10:04;21.00;48.80
16074;DHT22;8141;52.664;5.074;2023-04-30T08:12:30;21.00;48.80
16074;DHT22;8141;52.664;5.074;2023-04-30T08:15:01;21.00;48.80
16074;DHT22;8141;52.664;5.074;2023-04-30T08:17:28;21.00;48.70
16074;DHT22;8141;52.664;5.074;2023-04-30T08:19:54;21.00;48.80
16074;DHT22;8141;52.664;5.074;2023-04-30T08:22:19;21.00;48.70
16074;DHT22;8141;52.664;5.074;2023-04-30T08:24:45;21.00;48.70
16074;DHT22;8141;52.664;5.074;2023-04-30T08:27:11;21.00;48.90
16074;DHT22;8141;52.664;5.074;2023-04-30T08:29:37;21.10;49.10
16074;DHT22;8141;52.664;5.074;2023-04-30T08:32:03;21.10;49.10
16074;DHT22;8141;52.664;5.074;2023-04-30T08:34:30;21.10;49.00
16074;DHT22;8141;52.664;5.074;2023-04-30T08:36:56;21.10;49.00
16074;DHT22;8141;52.664;5.074;2023-04-30T08:39:22;21.10;48.90
16074;DHT22;8141;52.664;5.074;2023-04-30T08:41:55;21.20;48.80
16074;DHT22;8141;52.664;5.074;2023-04-30T08:44:22;21.20;49.10
16074;DHT22;8141;52.664;5.074;2023-04-30T08:46:53;21.20;48.90
16074;DHT22;8141;52.664;5.074;2023-04-30T08:49:23;21.20;48.80
16074;DHT22;8141;52.664;5.074;2023-04-30T08:51:50;21.20;48.80
16074;DHT22;8141;52.664;5.074;2023-04-30T08:54:17;21.20;49.10
16074;DHT22;8141;52.664;5.074;2023-04-30T08:56:44;21.30;49.10
16074;DHT22;8141;52.664;5.074;2023-04-30T08:59:11;21.30;48.60
16074;DHT22;8141;52.664;5.074;2023-04-30T09:01:37;21.30;48.50
16074;DHT22;8141;52.664;5.074;2023-04-30T09:04:04;21.30;48.40
16074;DHT22;8141;52.664;5.074;2023-04-30T09:06:30;21.30;48.20
16074;DHT22;8141;52.664;5.074;2023-04-30T09:08:56;21.30;48.30
16074;DHT22;8141;52.664;5.074;2023-04-30T09:11:29;21.40;48.60
16074;DHT22;8141;52.664;5.074;2023-04-30T09:13:57;21.40;48.50
16074;DHT22;8141;52.664;5.074;2023-04-30T09:16:25;21.40;48.40
16074;DHT22;8141;52.664;5.074;2023-04-30T09:18:52;21.50;48.40
16074;DHT22;8141;52.664;5.074;2023-04-30T09:21:36;21.50;48.30
16074;DHT22;8141;52.664;5.074;2023-04-30T09:24:03;21.50;48.40
16074;DHT22;8141;52.664;5.074;2023-04-30T09:26:32;21.50;48.10
16074;DHT22;8141;52.664;5.074;2023-04-30T09:29:00;21.60;48.00
16074;DHT22;8141;52.664;5.074;2023-04-30T09:31:35;21.60;47.90
16074;DHT22;8141;52.664;5.074;2023-04-30T09:34:02;21.60;47.90
16074;DHT22;8141;52.664;5.074;2023-04-30T09:36:28;21.60;47.90
16074;DHT22;8141;52.664;5.074;2023-04-30T09:38:56;21.60;47.70
16074;DHT22;8141;52.664;5.074;2023-04-30T09:41:26;21.60;47.60
16074;DHT22;8141;52.664;5.074;2023-04-30T09:43:56;21.60;47.70
16074;DHT22;8141;52.664;5.074;2023-04-30T09:46:33;21.60;47.80
16074;DHT22;8141;52.664;5.074;2023-04-30T09:49:02;21.70;47.60
16074;DHT22;8141;52.664;5.074;2023-04-30T09:51:29;21.70;47.60
16074;DHT22;8141;52.664;5.074;2023-04-30T09:53:56;21.70;47.70
16074;DHT22;8141;52.664;5.074;2023-04-30T09:56:23;21.70;47.50
16074;DHT22;8141;52.664;5.074;2023-04-30T09:58:52;21.70;47.50
16074;DHT22;8141;52.664;5.074;2023-04-30T10:01:25;21.70;47.40
16074;DHT22;8141;52.664;5.074;2023-04-30T10:03:52;21.70;47.70
16074;DHT22;8141;52.664;5.074;2023-04-30T10:06:19;21.70;47.00
16074;DHT22;8141;52.664;5.074;2023-04-30T10:08:50;21.70;47.00
16074;DHT22;8141;52.664;5.074;2023-04-30T10:11:25;21.70;47.00
16074;DHT22;8141;52.664;5.074;2023-04-30T10:14:06;21.70;47.20
16074;DHT22;8141;52.664;5.074;2023-04-30T10:16:53;21.70;47.00
16074;DHT22;8141;52.664;5.074;2023-04-30T10:19:25;21.70;47.10
16074;DHT22;8141;52.664;5.074;2023-04-30T10:21:57;21.80;46.70
16074;DHT22;8141;52.664;5.074;2023-04-30T10:24:24;21.80;46.90
16074;DHT22;8141;52.664;5.074;2023-04-30T10:26:51;21.80;47.10
16074;DHT22;8141;52.664;5.074;2023-04-30T10:29:17;21.80;46.90
16074;DHT22;8141;52.664;5.074;2023-04-30T10:31:46;21.80;46.70
16074;DHT22;8141;52.664;5.074;2023-04-30T10:36:58;21.80;46.60
16074;DHT22;8141;52.664;5.074;2023-04-30T10:39:26;21.80;46.60
16074;DHT22;8141;52.664;5.074;2023-04-30T10:42:06;21.80;46.50
16074;DHT22;8141;52.664;5.074;2023-04-30T10:44:38;21.80;46.60
16074;DHT22;8141;52.664;5.074;2023-04-30T10:47:06;21.80;46.90
16074;DHT22;8141;52.664;5.074;2023-04-30T10:49:32;21.80;46.40
16074;DHT22;8141;52.664;5.074;2023-04-30T10:52:00;21.80;46.50
16074;DHT22;8141;52.664;5.074;2023-04-30T10:54:34;21.80;46.40
16074;DHT22;8141;52.664;5.074;2023-04-30T10:57:14;21.80;46.30
16074;DHT22;8141;52.664;5.074;2023-04-30T11:02:43;21.80;46.00
16074;DHT22;8141;52.664;5.074;2023-04-30T11:05:13;21.80;46.20
16074;DHT22;8141;52.664;5.074;2023-04-30T11:07:50;21.80;45.70
16074;DHT22;8141;52.664;5.074;2023-04-30T11:10:22;21.80;45.80
16074;DHT22;8141;52.664;5.074;2023-04-30T11:12:54;21.80;45.80
16074;DHT22;8141;52.664;5.074;2023-04-30T11:15:24;21.80;46.20
16074;DHT22;8141;52.664;5.074;2023-04-30T11:17:55;21.80;45.80
16074;DHT22;8141;52.664;5.074;2023-04-30T11:20:24;21.80;45.70
16074;DHT22;8141;52.664;5.074;2023-04-30T11:23:13;21.80;45.30
16074;DHT22;8141;52.664;5.074;2023-04-30T11:28:26;21.80;45.60
16074;DHT22;8141;52.664;5.074;2023-04-30T11:30:56;21.80;45.60
16074;DHT22;8141;52.664;5.074;2023-04-30T11:33:24;21.80;45.70
16074;DHT22;8141;52.664;5.074;2023-04-30T11:35:51;21.80;45.60
16074;DHT22;8141;52.664;5.074;2023-04-30T11:38:36;21.80;45.30
16074;DHT22;8141;52.664;5.074;2023-04-30T11:41:03;21.80;45.60
16074;DHT22;8141;52.664;5.074;2023-04-30T11:43:30;21.80;45.40
16074;DHT22;8141;52.664;5.074;2023-04-30T11:46:05;21.80;45.50
16074;DHT22;8141;52.664;5.074;2023-04-30T11:48:36;21.80;45.40
16074;DHT22;8141;52.664;5.074;2023-04-30T11:51:05;21.80;45.40
16074;DHT22;8141;52.664;5.074;2023-04-30T11:53:38;21.80;45.30
16074;DHT22;8141;52.664;5.074;2023-04-30T11:56:04;21.80;45.30
16074;DHT22;8141;52.664;5.074;2023-04-30T11:58:34;21.80;45.10
16074;DHT22;8141;52.664;5.074;2023-04-30T12:01:04;21.80;45.30
16074;DHT22;8141;52.664;5.074;2023-04-30T12:03:31;21.80;45.30
16074;DHT22;8141;52.664;5.074;2023-04-30T12:05:56;21.80;45.10
16074;DHT22;8141;52.664;5.074;2023-04-30T12:08:22;21.80;45.20
16074;DHT22;8141;52.664;5.074;2023-04-30T12:10:48;21.80;44.90
16074;DHT22;8141;52.664;5.074;2023-04-30T12:13:14;21.80;45.10
16074;DHT22;8141;52.664;5.074;2023-04-30T12:15:42;21.80;45.00
16074;DHT22;8141;52.664;5.074;2023-04-30T12:18:22;21.80;45.20
16074;DHT22;8141;52.664;5.074;2023-04-30T12:20:47;21.80;45.10
16074;DHT22;8141;52.664;5.074;2023-04-30T12:23:14;21.80;45.10
16074;DHT22;8141;52.664;5.074;2023-04-30T12:25:41;21.80;45.00
16074;DHT22;8141;52.664;5.074;2023-04-30T12:28:09;21.80;45.00
16074;DHT22;8141;52.664;5.074;2023-04-30T12:30:35;21.80;45.00
16074;DHT22;8141;52.664;5.074;2023-04-30T12:33:02;21.80;45.00
16074;DHT22;8141;52.664;5.074;2023-04-30T12:35:29;21.80;45.00
16074;DHT22;8141;52.664;5.074;2023-04-30T12:38:03;21.80;44.90
16074;DHT22;8141;52.664;5.074;2023-04-30T12:40:31;21.80;45.00
16074;DHT22;8141;52.664;5.074;2023-04-30T12:43:00;21.90;45.00
16074;DHT22;8141;52.664;5.074;2023-04-30T12:48:24;21.80;44.80
16074;DHT22;8141;52.664;5.074;2023-04-30T12:51:00;21.80;44.90
16074;DHT22;8141;52.664;5.074;2023-04-30T12:53:27;21.80;44.90
16074;DHT22;8141;52.664;5.074;2023-04-30T12:56:10;21.80;45.00
16074;DHT22;8141;52.664;5.074;2023-04-30T12:58:40;21.80;45.00
16074;DHT22;8141;52.664;5.074;2023-04-30T13:01:19;21.80;45.60
16074;DHT22;8141;52.664;5.074;2023-04-30T13:03:46;21.80;45.00
16074;DHT22;8141;52.664;5.074;2023-04-30T13:06:12;21.80;45.10
16074;DHT22;8141;52.664;5.074;2023-04-30T13:08:38;21.80;45.00
16074;DHT22;8141;52.664;5.074;2023-04-30T13:11:05;21.80;45.00
16074;DHT22;8141;52.664;5.074;2023-04-30T13:13:31;21.80;45.00
16074;DHT22;8141;52.664;5.074;2023-04-30T13:15:57;21.80;45.10
16074;DHT22;8141;52.664;5.074;2023-04-30T13:18:23;21.80;45.00
16074;DHT22;8141;52.664;5.074;2023-04-30T13:20:48;21.80;45.00
16074;DHT22;8141;52.664;5.074;2023-04-30T13:23:14;21.80;45.10
16074;DHT22;8141;52.664;5.074;2023-04-30T13:25:40;21.80;45.00
16074;DHT22;8141;52.664;5.074;2023-04-30T13:28:06;21.80;45.10
16074;DHT22;8141;52.664;5.074;2023-04-30T13:30:32;21.80;45.00
16074;DHT22;8141;52.664;5.074;2023-04-30T13:32:58;21.80;45.10
16074;DHT22;8141;52.664;5.074;2023-04-30T13:35:24;21.80;45.00
16074;DHT22;8141;52.664;5.074;2023-04-30T13:37:51;21.80;45.00
16074;DHT22;8141;52.664;5.074;2023-04-30T13:40:18;21.80;45.10
16074;DHT22;8141;52.664;5.074;2023-04-30T13:42:46;21.80;45.10
16074;DHT22;8141;52.664;5.074;2023-04-30T13:45:12;21.80;45.10
16074;DHT22;8141;52.664;5.074;2023-04-30T13:47:38;21.80;45.00
16074;DHT22;8141;52.664;5.074;2023-04-30T13:50:05;21.80;45.20
16074;DHT22;8141;52.664;5.074;2023-04-30T13:52:32;21.80;45.10
16074;DHT22;8141;52.664;5.074;2023-04-30T13:54:58;21.80;45.20
16074;DHT22;8141;52.664;5.074;2023-04-30T13:57:24;21.80;45.60
16074;DHT22;8141;52.664;5.074;2023-04-30T13:59:50;21.80;45.80
16074;DHT22;8141;52.664;5.074;2023-04-30T14:02:16;21.80;45.90
16074;DHT22;8141;52.664;5.074;2023-04-30T14:04:43;21.90;46.10
16074;DHT22;8141;52.664;5.074;2023-04-30T14:07:08;21.90;46.10
16074;DHT22;8141;52.664;5.074;2023-04-30T14:09:34;21.90;46.40
16074;DHT22;8141;52.664;5.074;2023-04-30T14:12:00;22.00;46.30
16074;DHT22;8141;52.664;5.074;2023-04-30T14:14:26;22.00;46.30
16074;DHT22;8141;52.664;5.074;2023-04-30T14:16:53;22.00;46.10
16074;DHT22;8141;52.664;5.074;2023-04-30T14:19:20;21.90;46.00
16074;DHT22;8141;52.664;5.074;2023-04-30T14:21:46;22.00;46.00
16074;DHT22;8141;52.664;5.074;2023-04-30T14:24:12;22.00;46.00
16074;DHT22;8141;52.664;5.074;2023-04-30T14:26:41;22.00;45.90
16074;DHT22;8141;52.664;5.074;2023-04-30T14:29:07;22.00;45.90
16074;DHT22;8141;52.664;5.074;2023-04-30T14:31:33;22.00;45.80
16074;DHT22;8141;52.664;5.074;2023-04-30T14:33:59;22.00;45.70
16074;DHT22;8141;52.664;5.074;2023-04-30T14:36:25;22.00;45.80
16074;DHT22;8141;52.664;5.074;2023-04-30T14:38:52;22.00;45.80
16074;DHT22;8141;52.664;5.074;2023-04-30T14:41:18;22.00;45.80
16074;DHT22;8141;52.664;5.074;2023-04-30T14:43:43;22.00;45.80
16074;DHT22;8141;52.664;5.074;2023-04-30T14:46:09;22.00;45.70
16074;DHT22;8141;52.664;5.074;2023-04-30T14:48:36;22.00;45.70
16074;DHT22;8141;52.664;5.074;2023-04-30T14:51:02;21.90;45.60
16074;DHT22;8141;52.664;5.074;2023-04-30T14:53:28;22.00;45.70
16074;DHT22;8141;52.664;5.074;2023-04-30T14:55:56;22.00;45.60
16074;DHT22;8141;52.664;5.074;2023-04-30T14:58:21;22.00;45.60
16074;DHT22;8141;52.664;5.074;2023-04-30T15:00:47;21.90;45.60
16074;DHT22;8141;52.664;5.074;2023-04-30T15:03:14;21.90;45.70
16074;DHT22;8141;52.664;5.074;2023-04-30T15:05:40;21.90;45.60
16074;DHT22;8141;52.664;5.074;2023-04-30T15:08:06;21.90;45.70
16074;DHT22;8141;52.664;5.074;2023-04-30T15:10:32;22.00;45.80
16074;DHT22;8141;52.664;5.074;2023-04-30T15:12:57;21.90;45.70
16074;DHT22;8141;52.664;5.074;2023-04-30T15:15:23;22.00;45.70
16074;DHT22;8141;52.664;5.074;2023-04-30T15:17:53;21.90;45.70
16074;DHT22;8141;52.664;5.074;2023-04-30T15:20:20;22.00;45.70
16074;DHT22;8141;52.664;5.074;2023-04-30T15:22:46;21.90;45.60
16074;DHT22;8141;52.664;5.074;2023-04-30T15:25:12;21.90;45.70
16074;DHT22;8141;52.664;5.074;2023-04-30T15:27:38;22.00;45.80
16074;DHT22;8141;52.664;5.074;2023-04-30T15:30:06;22.00;45.80
16074;DHT22;8141;52.664;5.074;2023-04-30T15:32:32;22.00;45.80
16074;DHT22;8141;52.664;5.074;2023-04-30T15:34:58;22.00;45.80
16074;DHT22;8141;52.664;5.074;2023-04-30T15:37:23;21.90;45.80
16074;DHT22;8141;52.664;5.074;2023-04-30T15:39:49;22.00;45.90
16074;DHT22;8141;52.664;5.074;2023-04-30T15:42:15;21.90;45.90
16074;DHT22;8141;52.664;5.074;2023-04-30T15:44:40;21.90;45.90
16074;DHT22;8141;52.664;5.074;2023-04-30T15:47:06;21.90;45.90
16074;DHT22;8141;52.664;5.074;2023-04-30T15:49:32;21.90;45.90
16074;DHT22;8141;52.664;5.074;2023-04-30T15:51:58;21.90;45.90
16074;DHT22;8141;52.664;5.074;2023-04-30T15:54:24;22.00;45.90
16074;DHT22;8141;52.664;5.074;2023-04-30T15:56:50;21.90;45.90
16074;DHT22;8141;52.664;5.074;2023-04-30T15:59:16;22.00;46.00
16074;DHT22;8141;52.664;5.074;2023-04-30T16:01:42;22.00;45.90
16074;DHT22;8141;52.664;5.074;2023-04-30T16:04:10;21.90;45.90
16074;DHT22;8141;52.664;5.074;2023-04-30T16:06:36;21.90;45.90